sensor_id;sensor_type;location;lat;lon;timestamp;temperature;humidity
36990;DHT22;22898;52.102;5.776;2022-11-03T00:01:03;17.10;87.30
36990;DHT22;22898;52.102;5.776;2022-11-03T00:03:29;17.30;86.70
36990;DHT22;22898;52.102;5.776;2022-11-03T00:05:55;17.40;86.00
36990;DHT22;22898;52.102;5.776;2022-11-03T00:08:40;17.60;86.60
36990;DHT22;22898;52.102;5.776;2022-11-03T00:11:12;17.50;86.00
36990;DHT22;22898;52.102;5.776;2022-11-03T00:13:42;17.50;86.30
36990;DHT22;22898;52.102;5.776;2022-11-03T00:16:10;17.50;86.30
36990;DHT22;22898;52.102;5.776;2022-11-03T00:18:38;17.60;85.90
36990;DHT22;22898;52.102;5.776;2022-11-03T00:21:08;17.60;86.40
36990;DHT22;22898;52.102;5.776;2022-11-03T00:23:36;17.60;86.30
36990;DHT22;22898;52.102;5.776;2022-11-03T00:26:16;17.50;86.90
36990;DHT22;22898;52.102;5.776;2022-11-03T00:28:44;17.70;86.10
36990;DHT22;22898;52.102;5.776;2022-11-03T00:31:12;17.60;86.70
36990;DHT22;22898;52.102;5.776;2022-11-03T00:33:39;17.60;86.70
36990;DHT22;22898;52.102;5.776;2022-11-03T00:36:06;17.80;86.10
36990;DHT22;22898;52.102;5.776;2022-11-03T00:38:32;17.70;85.90
36990;DHT22;22898;52.102;5.776;2022-11-03T00:41:00;17.80;86.00
36990;DHT22;22898;52.102;5.776;2022-11-03T00:43:28;17.90;85.90
36990;DHT22;22898;52.102;5.776;2022-11-03T00:45:54;17.70;87.10
36990;DHT22;22898;52.102;5.776;2022-11-03T00:48:20;17.70;86.60
36990;DHT22;22898;52.102;5.776;2022-11-03T00:53:32;17.80;86.50
36990;DHT22;22898;52.102;5.776;2022-11-03T00:55:58;17.80;86.60
36990;DHT22;22898;52.102;5.776;2022-11-03T00:58:24;17.80;86.10
36990;DHT22;22898;52.102;5.776;2022-11-03T01:00:50;17.80;86.30
36990;DHT22;22898;52.102;5.776;2022-11-03T01:03:16;17.60;86.90
36990;DHT22;22898;52.102;5.776;2022-11-03T01:05:43;17.60;87.40
36990;DHT22;22898;52.102;5.776;2022-11-03T01:08:32;17.40;87.70
36990;DHT22;22898;52.102;5.776;2022-11-03T01:11:13;17.40;88.00
36990;DHT22;22898;52.102;5.776;2022-11-03T01:13:58;17.40;88.10
36990;DHT22;22898;52.102;5.776;2022-11-03T01:16:24;17.50;87.70
36990;DHT22;22898;52.102;5.776;2022-11-03T01:18:50;17.70;87.00
36990;DHT22;22898;52.102;5.776;2022-11-03T01:21:16;17.60;87.30
36990;DHT22;22898;52.102;5.776;2022-11-03T01:23:42;17.70;86.90
36990;DHT22;22898;52.102;5.776;2022-11-03T01:26:10;17.60;87.40
36990;DHT22;22898;52.102;5.776;2022-11-03T01:28:37;17.70;87.30
36990;DHT22;22898;52.102;5.776;2022-11-03T01:31:08;17.50;87.90
36990;DHT22;22898;52.102;5.776;2022-11-03T01:33:34;17.40;87.70
36990;DHT22;22898;52.102;5.776;2022-11-03T01:36:00;17.40;87.70
36990;DHT22;22898;52.102;5.776;2022-11-03T01:38:26;17.50;87.80
36990;DHT22;22898;52.102;5.776;2022-11-03T01:40:52;17.50;87.50
36990;DHT22;22898;52.102;5.776;2022-11-03T01:43:20;17.70;87.30
36990;DHT22;22898;52.102;5.776;2022-11-03T01:45:49;17.70;87.40
36990;DHT22;22898;52.102;5.776;2022-11-03T01:48:16;17.80;87.00
36990;DHT22;22898;52.102;5.776;2022-11-03T01:50:44;17.80;86.80
36990;DHT22;22898;52.102;5.776;2022-11-03T01:53:11;17.80;87.00
36990;DHT22;22898;52.102;5.776;2022-11-03T01:55:38;17.60;87.60
36990;DHT22;22898;52.102;5.776;2022-11-03T01:58:11;17.60;87.90
36990;DHT22;22898;52.102;5.776;2022-11-03T02:00:40;17.70;87.80
36990;DHT22;22898;52.102;5.776;2022-11-03T02:03:07;17.50;88.50
36990;DHT22;22898;52.102;5.776;2022-11-03T02:05:32;17.40;88.50
36990;DHT22;22898;52.102;5.776;2022-11-03T02:08:08;17.50;88.60
36990;DHT22;22898;52.102;5.776;2022-11-03T02:10:35;17.70;88.10
36990;DHT22;22898;52.102;5.776;2022-11-03T02:13:08;17.90;87.40
36990;DHT22;22898;52.102;5.776;2022-11-03T02:15:35;17.60;88.20
36990;DHT22;22898;52.102;5.776;2022-11-03T02:18:01;17.70;88.30
36990;DHT22;22898;52.102;5.776;2022-11-03T02:20:28;17.70;88.00
36990;DHT22;22898;52.102;5.776;2022-11-03T02:23:02;17.80;88.00
36990;DHT22;22898;52.102;5.776;2022-11-03T02:25:47;17.90;87.30
36990;DHT22;22898;52.102;5.776;2022-11-03T02:28:17;17.80;87.60
36990;DHT22;22898;52.102;5.776;2022-11-03T02:30:54;17.70;88.30
36990;DHT22;22898;52.102;5.776;2022-11-03T02:33:54;17.70;88.20
36990;DHT22;22898;52.102;5.776;2022-11-03T02:36:48;17.60;88.80
36990;DHT22;22898;52.102;5.776;2022-11-03T02:39:30;17.60;88.60
36990;DHT22;22898;52.102;5.776;2022-11-03T02:42:00;17.50;89.10
36990;DHT22;22898;52.102;5.776;2022-11-03T02:44:28;17.40;89.20
36990;DHT22;22898;52.102;5.776;2022-11-03T02:47:00;17.30;89.50
36990;DHT22;22898;52.102;5.776;2022-11-03T02:49:27;17.40;89.60
36990;DHT22;22898;52.102;5.776;2022-11-03T02:52:03;17.50;89.20
36990;DHT22;22898;52.102;5.776;2022-11-03T02:54:36;17.40;89.40
36990;DHT22;22898;52.102;5.776;2022-11-03T02:57:13;17.30;89.60
36990;DHT22;22898;52.102;5.776;2022-11-03T02:59:53;17.30;90.10
36990;DHT22;22898;52.102;5.776;2022-11-03T03:02:29;17.30;90.00
36990;DHT22;22898;52.102;5.776;2022-11-03T03:05:00;17.60;89.10
36990;DHT22;22898;52.102;5.776;2022-11-03T03:07:33;17.60;89.10
36990;DHT22;22898;52.102;5.776;2022-11-03T03:12:27;17.80;88.60
36990;DHT22;22898;52.102;5.776;2022-11-03T03:14:56;17.80;88.50
36990;DHT22;22898;52.102;5.776;2022-11-03T03:17:24;17.80;88.20
36990;DHT22;22898;52.102;5.776;2022-11-03T03:20:05;17.80;88.40
36990;DHT22;22898;52.102;5.776;2022-11-03T03:22:48;17.90;88.30
36990;DHT22;22898;52.102;5.776;2022-11-03T03:25:29;17.70;88.80
36990;DHT22;22898;52.102;5.776;2022-11-03T03:28:09;17.40;90.00
36990;DHT22;22898;52.102;5.776;2022-11-03T03:30:36;17.50;89.60
36990;DHT22;22898;52.102;5.776;2022-11-03T03:33:04;17.60;89.40
36990;DHT22;22898;52.102;5.776;2022-11-03T03:35:32;17.60;89.10
36990;DHT22;22898;52.102;5.776;2022-11-03T03:38:12;17.80;88.70
36990;DHT22;22898;52.102;5.776;2022-11-03T03:40:41;17.70;88.80
36990;DHT22;22898;52.102;5.776;2022-11-03T03:43:10;17.70;88.90
36990;DHT22;22898;52.102;5.776;2022-11-03T03:45:39;17.60;89.20
36990;DHT22;22898;52.102;5.776;2022-11-03T03:48:07;17.70;89.40
36990;DHT22;22898;52.102;5.776;2022-11-03T03:50:39;17.70;89.40
36990;DHT22;22898;52.102;5.776;2022-11-03T03:53:10;17.70;89.50
36990;DHT22;22898;52.102;5.776;2022-11-03T03:55:41;17.60;89.70
36990;DHT22;22898;52.102;5.776;2022-11-03T03:58:10;17.50;90.10
36990;DHT22;22898;52.102;5.776;2022-11-03T04:00:36;17.60;90.10
36990;DHT22;22898;52.102;5.776;2022-11-03T04:03:04;17.70;90.20
36990;DHT22;22898;52.102;5.776;2022-11-03T04:05:30;17.60;90.00
36990;DHT22;22898;52.102;5.776;2022-11-03T04:07:56;17.60;90.00
36990;DHT22;22898;52.102;5.776;2022-11-03T04:10:23;17.50;90.10
36990;DHT22;22898;52.102;5.776;2022-11-03T04:12:49;17.60;89.60
36990;DHT22;22898;52.102;5.776;2022-11-03T04:15:34;17.70;89.70
36990;DHT22;22898;52.102;5.776;2022-11-03T04:18:26;17.60;90.00
36990;DHT22;22898;52.102;5.776;2022-11-03T04:21:12;17.60;90.00
36990;DHT22;22898;52.102;5.776;2022-11-03T04:23:57;17.50;90.20
36990;DHT22;22898;52.102;5.776;2022-11-03T04:26:26;17.50;90.00
36990;DHT22;22898;52.102;5.776;2022-11-03T04:28:52;17.50;90.20
36990;DHT22;22898;52.102;5.776;2022-11-03T04:31:19;17.50;90.30
36990;DHT22;22898;52.102;5.776;2022-11-03T04:33:45;17.60;90.40
36990;DHT22;22898;52.102;5.776;2022-11-03T04:36:25;17.60;90.00
36990;DHT22;22898;52.102;5.776;2022-11-03T04:38:51;17.70;90.00
36990;DHT22;22898;52.102;5.776;2022-11-03T04:41:19;17.60;90.10
36990;DHT22;22898;52.102;5.776;2022-11-03T04:43:45;17.60;90.10
36990;DHT22;22898;52.102;5.776;2022-11-03T04:46:24;17.60;90.10
36990;DHT22;22898;52.102;5.776;2022-11-03T04:48:52;17.70;90.10
36990;DHT22;22898;52.102;5.776;2022-11-03T04:51:21;17.60;90.30
36990;DHT22;22898;52.102;5.776;2022-11-03T04:53:54;17.60;90.20
36990;DHT22;22898;52.102;5.776;2022-11-03T04:56:22;17.60;90.20
36990;DHT22;22898;52.102;5.776;2022-11-03T04:58:49;17.60;90.30
36990;DHT22;22898;52.102;5.776;2022-11-03T05:01:18;17.40;90.50
36990;DHT22;22898;52.102;5.776;2022-11-03T05:03:47;17.30;90.80
36990;DHT22;22898;52.102;5.776;2022-11-03T05:06:27;17.30;90.80
36990;DHT22;22898;52.102;5.776;2022-11-03T05:09:27;17.40;90.80
36990;DHT22;22898;52.102;5.776;2022-11-03T05:11:53;17.60;90.80
36990;DHT22;22898;52.102;5.776;2022-11-03T05:14:26;17.60;90.30
36990;DHT22;22898;52.102;5.776;2022-11-03T05:16:53;17.80;90.10
36990;DHT22;22898;52.102;5.776;2022-11-03T05:19:29;17.60;90.20
36990;DHT22;22898;52.102;5.776;2022-11-03T05:21:59;17.60;90.30
36990;DHT22;22898;52.102;5.776;2022-11-03T05:24:25;17.50;90.50
36990;DHT22;22898;52.102;5.776;2022-11-03T05:26:56;17.20;91.10
36990;DHT22;22898;52.102;5.776;2022-11-03T05:29:31;17.40;91.00
36990;DHT22;22898;52.102;5.776;2022-11-03T05:31:59;17.50;90.70
36990;DHT22;22898;52.102;5.776;2022-11-03T05:34:41;17.30;90.80
36990;DHT22;22898;52.102;5.776;2022-11-03T05:37:32;17.40;91.00
36990;DHT22;22898;52.102;5.776;2022-11-03T05:40:13;17.50;90.70
36990;DHT22;22898;52.102;5.776;2022-11-03T05:42:43;17.50;90.60
36990;DHT22;22898;52.102;5.776;2022-11-03T05:45:22;17.50;91.00
36990;DHT22;22898;52.102;5.776;2022-11-03T05:47:50;17.70;90.60
36990;DHT22;22898;52.102;5.776;2022-11-03T05:50:18;17.60;90.70
36990;DHT22;22898;52.102;5.776;2022-11-03T05:52:46;17.50;90.90
36990;DHT22;22898;52.102;5.776;2022-11-03T05:55:32;17.60;90.80
36990;DHT22;22898;52.102;5.776;2022-11-03T05:58:04;17.60;90.80
36990;DHT22;22898;52.102;5.776;2022-11-03T06:00:41;17.50;91.20
36990;DHT22;22898;52.102;5.776;2022-11-03T06:03:12;17.50;91.10
36990;DHT22;22898;52.102;5.776;2022-11-03T06:05:40;17.60;91.00
36990;DHT22;22898;52.102;5.776;2022-11-03T06:08:13;17.60;91.00
36990;DHT22;22898;52.102;5.776;2022-11-03T06:10:50;17.70;90.90
36990;DHT22;22898;52.102;5.776;2022-11-03T06:13:25;17.90;90.70
36990;DHT22;22898;52.102;5.776;2022-11-03T06:15:58;17.80;90.90
36990;DHT22;22898;52.102;5.776;2022-11-03T06:18:33;17.90;90.90
36990;DHT22;22898;52.102;5.776;2022-11-03T06:21:13;17.80;90.90
36990;DHT22;22898;52.102;5.776;2022-11-03T06:23:40;17.80;91.10
36990;DHT22;22898;52.102;5.776;2022-11-03T06:26:36;17.70;91.20
36990;DHT22;22898;52.102;5.776;2022-11-03T06:29:02;17.50;91.70
36990;DHT22;22898;52.102;5.776;2022-11-03T06:31:30;17.50;91.60
36990;DHT22;22898;52.102;5.776;2022-11-03T06:33:57;17.60;91.60
36990;DHT22;22898;52.102;5.776;2022-11-03T06:36:26;17.60;91.60
36990;DHT22;22898;52.102;5.776;2022-11-03T06:39:13;17.80;91.60
36990;DHT22;22898;52.102;5.776;2022-11-03T06:41:40;17.90;91.20
36990;DHT22;22898;52.102;5.776;2022-11-03T06:44:22;17.60;91.80
36990;DHT22;22898;52.102;5.776;2022-11-03T06:47:00;17.50;92.00
36990;DHT22;22898;52.102;5.776;2022-11-03T06:49:34;17.40;92.10
36990;DHT22;22898;52.102;5.776;2022-11-03T06:52:32;17.40;92.20
36990;DHT22;22898;52.102;5.776;2022-11-03T06:57:44;17.60;91.80
36990;DHT22;22898;52.102;5.776;2022-11-03T07:03:02;17.50;92.00
36990;DHT22;22898;52.102;5.776;2022-11-03T07:05:30;17.50;92.20
36990;DHT22;22898;52.102;5.776;2022-11-03T07:07:59;17.40;92.40
36990;DHT22;22898;52.102;5.776;2022-11-03T07:10:28;17.30;92.70
36990;DHT22;22898;52.102;5.776;2022-11-03T07:12:58;17.50;92.40
36990;DHT22;22898;52.102;5.776;2022-11-03T07:15:31;17.60;92.10
36990;DHT22;22898;52.102;5.776;2022-11-03T07:17:58;17.60;92.10
36990;DHT22;22898;52.102;5.776;2022-11-03T07:20:25;17.40;92.40
36990;DHT22;22898;52.102;5.776;2022-11-03T07:22:51;17.50;92.60
36990;DHT22;22898;52.102;5.776;2022-11-03T07:25:20;17.70;92.10
36990;DHT22;22898;52.102;5.776;2022-11-03T07:27:54;18.00;91.40
36990;DHT22;22898;52.102;5.776;2022-11-03T07:30:28;17.90;91.40
36990;DHT22;22898;52.102;5.776;2022-11-03T07:32:59;17.60;91.90
36990;DHT22;22898;52.102;5.776;2022-11-03T07:35:33;17.40;92.50
36990;DHT22;22898;52.102;5.776;2022-11-03T07:38:08;17.60;92.00
36990;DHT22;22898;52.102;5.776;2022-11-03T07:40:36;17.40;92.40
36990;DHT22;22898;52.102;5.776;2022-11-03T07:43:14;17.30;92.50
36990;DHT22;22898;52.102;5.776;2022-11-03T07:45:47;17.30;92.80
36990;DHT22;22898;52.102;5.776;2022-11-03T07:48:26;17.50;92.30
36990;DHT22;22898;52.102;5.776;2022-11-03T07:50:54;17.70;92.20
36990;DHT22;22898;52.102;5.776;2022-11-03T07:53:44;17.70;92.30
36990;DHT22;22898;52.102;5.776;2022-11-03T07:58:53;17.70;92.20
36990;DHT22;22898;52.102;5.776;2022-11-03T08:01:39;18.00;91.80
36990;DHT22;22898;52.102;5.776;2022-11-03T08:04:11;17.90;91.90
36990;DHT22;22898;52.102;5.776;2022-11-03T08:06:38;17.90;91.80
36990;DHT22;22898;52.102;5.776;2022-11-03T08:09:04;18.00;91.70
36990;DHT22;22898;52.102;5.776;2022-11-03T08:11:30;18.20;91.50
36990;DHT22;22898;52.102;5.776;2022-11-03T08:13:56;18.50;91.10
36990;DHT22;22898;52.102;5.776;2022-11-03T08:16:21;18.70;90.90
36990;DHT22;22898;52.102;5.776;2022-11-03T08:18:47;18.90;90.50
36990;DHT22;22898;52.102;5.776;2022-11-03T08:21:12;18.80;90.50
36990;DHT22;22898;52.102;5.776;2022-11-03T08:23:38;19.10;90.20
36990;DHT22;22898;52.102;5.776;2022-11-03T08:26:05;18.80;90.50
36990;DHT22;22898;52.102;5.776;2022-11-03T08:28:32;18.50;91.00
36990;DHT22;22898;52.102;5.776;2022-11-03T08:30:58;18.60;90.80
36990;DHT22;22898;52.102;5.776;2022-11-03T08:33:29;18.60;91.00
36990;DHT22;22898;52.102;5.776;2022-11-03T08:35:54;18.70;90.80
36990;DHT22;22898;52.102;5.776;2022-11-03T08:38:20;18.80;90.60
36990;DHT22;22898;52.102;5.776;2022-11-03T08:40:46;19.00;90.30
36990;DHT22;22898;52.102;5.776;2022-11-03T08:43:11;19.00;90.20
36990;DHT22;22898;52.102;5.776;2022-11-03T08:45:37;19.20;90.00
36990;DHT22;22898;52.102;5.776;2022-11-03T08:48:03;19.20;90.10
36990;DHT22;22898;52.102;5.776;2022-11-03T08:50:29;19.10;90.20
36990;DHT22;22898;52.102;5.776;2022-11-03T08:52:54;18.80;90.90
36990;DHT22;22898;52.102;5.776;2022-11-03T08:55:20;18.80;90.40
36990;DHT22;22898;52.102;5.776;2022-11-03T08:57:45;18.80;90.70
36990;DHT22;22898;52.102;5.776;2022-11-03T09:00:12;19.20;90.30
36990;DHT22;22898;52.102;5.776;2022-11-03T09:02:38;19.30;89.80
36990;DHT22;22898;52.102;5.776;2022-11-03T09:05:04;19.20;90.00
36990;DHT22;22898;52.102;5.776;2022-11-03T09:07:32;19.30;90.00
36990;DHT22;22898;52.102;5.776;2022-11-03T09:09:57;19.30;90.20
36990;DHT22;22898;52.102;5.776;2022-11-03T09:12:23;19.50;89.30
36990;DHT22;22898;52.102;5.776;2022-11-03T09:14:48;19.60;89.40
36990;DHT22;22898;52.102;5.776;2022-11-03T09:17:14;19.50;89.00
36990;DHT22;22898;52.102;5.776;2022-11-03T09:19:39;19.50;89.40
36990;DHT22;22898;52.102;5.776;2022-11-03T09:22:05;19.30;89.90
36990;DHT22;22898;52.102;5.776;2022-11-03T09:24:30;19.20;89.80
36990;DHT22;22898;52.102;5.776;2022-11-03T09:26:56;19.20;89.50
36990;DHT22;22898;52.102;5.776;2022-11-03T09:29:22;19.30;89.90
36990;DHT22;22898;52.102;5.776;2022-11-03T09:31:47;19.40;89.60
36990;DHT22;22898;52.102;5.776;2022-11-03T09:34:13;19.50;89.20
36990;DHT22;22898;52.102;5.776;2022-11-03T09:36:39;19.20;90.00
36990;DHT22;22898;52.102;5.776;2022-11-03T09:39:04;19.10;90.10
36990;DHT22;22898;52.102;5.776;2022-11-03T09:41:31;19.30;89.70
36990;DHT22;22898;52.102;5.776;2022-11-03T09:43:57;19.20;90.10
36990;DHT22;22898;52.102;5.776;2022-11-03T09:46:24;19.40;89.60
36990;DHT22;22898;52.102;5.776;2022-11-03T09:48:50;19.50;89.00
36990;DHT22;22898;52.102;5.776;2022-11-03T09:51:20;19.40;89.60
36990;DHT22;22898;52.102;5.776;2022-11-03T09:53:47;19.60;88.90
36990;DHT22;22898;52.102;5.776;2022-11-03T09:56:13;19.60;89.10
36990;DHT22;22898;52.102;5.776;2022-11-03T09:58:40;19.60;88.60
36990;DHT22;22898;52.102;5.776;2022-11-03T10:01:09;19.80;88.20
36990;DHT22;22898;52.102;5.776;2022-11-03T10:03:35;19.70;88.80
36990;DHT22;22898;52.102;5.776;2022-11-03T10:06:00;19.60;88.40
36990;DHT22;22898;52.102;5.776;2022-11-03T10:08:29;19.60;88.50
36990;DHT22;22898;52.102;5.776;2022-11-03T10:10:56;19.70;88.00
36990;DHT22;22898;52.102;5.776;2022-11-03T10:13:32;19.60;88.60
36990;DHT22;22898;52.102;5.776;2022-11-03T10:15:59;19.50;88.80
36990;DHT22;22898;52.102;5.776;2022-11-03T10:18:26;19.50;88.20
36990;DHT22;22898;52.102;5.776;2022-11-03T10:20:53;19.80;87.50
36990;DHT22;22898;52.102;5.776;2022-11-03T10:23:18;19.80;87.50
36990;DHT22;22898;52.102;5.776;2022-11-03T10:25:45;19.80;87.10
36990;DHT22;22898;52.102;5.776;2022-11-03T10:28:16;19.70;87.70
36990;DHT22;22898;52.102;5.776;2022-11-03T10:30:47;19.80;87.20
36990;DHT22;22898;52.102;5.776;2022-11-03T10:33:54;19.90;86.90
36990;DHT22;22898;52.102;5.776;2022-11-03T10:36:26;19.80;87.10
36990;DHT22;22898;52.102;5.776;2022-11-03T10:38:53;19.60;87.50
36990;DHT22;22898;52.102;5.776;2022-11-03T10:41:25;19.50;88.00
36990;DHT22;22898;52.102;5.776;2022-11-03T10:46:36;19.20;88.60
36990;DHT22;22898;52.102;5.776;2022-11-03T10:51:35;19.40;87.90
36990;DHT22;22898;52.102;5.776;2022-11-03T10:54:02;19.00;88.50
36990;DHT22;22898;52.102;5.776;2022-11-03T10:56:29;19.20;88.60
36990;DHT22;22898;52.102;5.776;2022-11-03T10:58:55;19.50;87.40
36990;DHT22;22898;52.102;5.776;2022-11-03T11:01:21;19.50;87.60
36990;DHT22;22898;52.102;5.776;2022-11-03T11:03:47;19.40;87.50
36990;DHT22;22898;52.102;5.776;2022-11-03T11:06:28;19.70;86.10
36990;DHT22;22898;52.102;5.776;2022-11-03T11:09:00;19.80;86.10
36990;DHT22;22898;52.102;5.776;2022-11-03T11:11:27;19.80;86.10
36990;DHT22;22898;52.102;5.776;2022-11-03T11:14:21;19.70;86.10
36990;DHT22;22898;52.102;5.776;2022-11-03T11:16:52;19.80;86.10
36990;DHT22;22898;52.102;5.776;2022-11-03T11:19:19;19.90;85.20
36990;DHT22;22898;52.102;5.776;2022-11-03T11:24:12;20.50;83.40
36990;DHT22;22898;52.102;5.776;2022-11-03T11:26:38;20.80;82.80
36990;DHT22;22898;52.102;5.776;2022-11-03T11:31:53;20.70;82.90
36990;DHT22;22898;52.102;5.776;2022-11-03T11:36:46;20.40;83.60
36990;DHT22;22898;52.102;5.776;2022-11-03T11:44:44;20.80;82.20
36990;DHT22;22898;52.102;5.776;2022-11-03T11:50:24;20.70;82.30
36990;DHT22;22898;52.102;5.776;2022-11-03T11:52:58;21.20;80.80
36990;DHT22;22898;52.102;5.776;2022-11-03T11:57:53;21.20;80.40
36990;DHT22;22898;52.102;5.776;2022-11-03T12:00:21;21.30;80.90
36990;DHT22;22898;52.102;5.776;2022-11-03T12:02:47;21.10;81.30
36990;DHT22;22898;52.102;5.776;2022-11-03T12:05:24;20.90;81.10
36990;DHT22;22898;52.102;5.776;2022-11-03T12:07:53;20.70;81.70
36990;DHT22;22898;52.102;5.776;2022-11-03T12:10:20;20.90;81.50
36990;DHT22;22898;52.102;5.776;2022-11-03T12:12:47;21.20;80.70
36990;DHT22;22898;52.102;5.776;2022-11-03T12:18:35;21.30;79.90
36990;DHT22;22898;52.102;5.776;2022-11-03T12:21:03;21.10;80.40
36990;DHT22;22898;52.102;5.776;2022-11-03T12:25:58;21.00;80.60
36990;DHT22;22898;52.102;5.776;2022-11-03T12:28:34;21.10;80.50
36990;DHT22;22898;52.102;5.776;2022-11-03T12:31:00;21.10;79.70
36990;DHT22;22898;52.102;5.776;2022-11-03T12:33:27;21.10;80.10
36990;DHT22;22898;52.102;5.776;2022-11-03T12:35:53;21.20;80.80
36990;DHT22;22898;52.102;5.776;2022-11-03T12:38:19;21.20;80.00
36990;DHT22;22898;52.102;5.776;2022-11-03T12:40:45;21.20;80.20
36990;DHT22;22898;52.102;5.776;2022-11-03T12:43:10;21.30;80.10
36990;DHT22;22898;52.102;5.776;2022-11-03T12:45:36;21.60;79.20
36990;DHT22;22898;52.102;5.776;2022-11-03T12:48:01;21.80;78.60
36990;DHT22;22898;52.102;5.776;2022-11-03T12:50:27;22.10;78.10
36990;DHT22;22898;52.102;5.776;2022-11-03T12:52:53;22.20;77.90
36990;DHT22;22898;52.102;5.776;2022-11-03T12:55:18;21.90;78.00
36990;DHT22;22898;52.102;5.776;2022-11-03T12:57:44;21.60;79.30
36990;DHT22;22898;52.102;5.776;2022-11-03T13:00:11;21.30;79.80
36990;DHT22;22898;52.102;5.776;2022-11-03T13:02:37;21.40;79.00
36990;DHT22;22898;52.102;5.776;2022-11-03T13:05:04;21.60;79.00
36990;DHT22;22898;52.102;5.776;2022-11-03T13:07:30;21.40;79.30
36990;DHT22;22898;52.102;5.776;2022-11-03T13:09:56;21.20;79.40
36990;DHT22;22898;52.102;5.776;2022-11-03T13:12:21;21.10;79.80
36990;DHT22;22898;52.102;5.776;2022-11-03T13:15:00;21.00;80.20
36990;DHT22;22898;52.102;5.776;2022-11-03T13:17:27;21.20;80.10
36990;DHT22;22898;52.102;5.776;2022-11-03T13:19:52;21.50;78.90
36990;DHT22;22898;52.102;5.776;2022-11-03T13:22:18;21.40;79.40
36990;DHT22;22898;52.102;5.776;2022-11-03T13:24:44;21.40;79.60
36990;DHT22;22898;52.102;5.776;2022-11-03T13:27:10;21.70;78.40
36990;DHT22;22898;52.102;5.776;2022-11-03T13:29:35;21.90;77.30
36990;DHT22;22898;52.102;5.776;2022-11-03T13:32:05;21.80;77.90
36990;DHT22;22898;52.102;5.776;2022-11-03T13:34:30;21.70;78.40
36990;DHT22;22898;52.102;5.776;2022-11-03T13:36:56;21.80;78.10
36990;DHT22;22898;52.102;5.776;2022-11-03T13:39:23;21.60;78.60
36990;DHT22;22898;52.102;5.776;2022-11-03T13:41:48;21.30;79.00
36990;DHT22;22898;52.102;5.776;2022-11-03T13:44:14;21.00;81.30
36990;DHT22;22898;52.102;5.776;2022-11-03T13:46:40;21.10;80.00
36990;DHT22;22898;52.102;5.776;2022-11-03T13:49:05;21.30;79.60
36990;DHT22;22898;52.102;5.776;2022-11-03T13:51:31;21.30;79.90
36990;DHT22;22898;52.102;5.776;2022-11-03T13:53:57;21.30;79.50
36990;DHT22;22898;52.102;5.776;2022-11-03T13:56:22;21.10;79.70
36990;DHT22;22898;52.102;5.776;2022-11-03T13:58:48;21.20;79.40
36990;DHT22;22898;52.102;5.776;2022-11-03T14:01:14;21.30;79.20
36990;DHT22;22898;52.102;5.776;2022-11-03T14:03:40;21.20;79.70
36990;DHT22;22898;52.102;5.776;2022-11-03T14:06:05;21.40;79.00
36990;DHT22;22898;52.102;5.776;2022-11-03T14:08:31;21.60;78.30
36990;DHT22;22898;52.102;5.776;2022-11-03T14:10:57;21.80;78.10
36990;DHT22;22898;52.102;5.776;2022-11-03T14:13:22;22.10;77.20
36990;DHT22;22898;52.102;5.776;2022-11-03T14:15:48;21.90;77.60
36990;DHT22;22898;52.102;5.776;2022-11-03T14:18:13;21.60;78.20
36990;DHT22;22898;52.102;5.776;2022-11-03T14:20:39;21.60;78.10
36990;DHT22;22898;52.102;5.776;2022-11-03T14:23:05;21.90;77.20
36990;DHT22;22898;52.102;5.776;2022-11-03T14:25:30;21.80;77.20
36990;DHT22;22898;52.102;5.776;2022-11-03T14:27:56;21.70;77.30
36990;DHT22;22898;52.102;5.776;2022-11-03T14:30:21;21.50;77.70
36990;DHT22;22898;52.102;5.776;2022-11-03T14:32:47;21.50;77.40
36990;DHT22;22898;52.102;5.776;2022-11-03T14:35:13;21.40;77.80
36990;DHT22;22898;52.102;5.776;2022-11-03T14:37:38;21.40;78.20
36990;DHT22;22898;52.102;5.776;2022-11-03T14:40:05;21.50;78.10
36990;DHT22;22898;52.102;5.776;2022-11-03T14:42:31;21.40;78.40
36990;DHT22;22898;52.102;5.776;2022-11-03T14:44:56;21.20;79.30
36990;DHT22;22898;52.102;5.776;2022-11-03T14:47:22;21.10;79.10
36990;DHT22;22898;52.102;5.776;2022-11-03T14:49:48;21.30;78.30
36990;DHT22;22898;52.102;5.776;2022-11-03T14:52:14;21.10;79.60
36990;DHT22;22898;52.102;5.776;2022-11-03T14:54:40;21.00;79.20
36990;DHT22;22898;52.102;5.776;2022-11-03T14:57:07;20.90;79.10
36990;DHT22;22898;52.102;5.776;2022-11-03T14:59:33;20.80;79.80
36990;DHT22;22898;52.102;5.776;2022-11-03T15:02:00;21.00;79.80
36990;DHT22;22898;52.102;5.776;2022-11-03T15:04:26;20.90;80.00
36990;DHT22;22898;52.102;5.776;2022-11-03T15:06:52;20.90;80.50
36990;DHT22;22898;52.102;5.776;2022-11-03T15:09:19;20.90;80.30
36990;DHT22;22898;52.102;5.776;2022-11-03T15:11:45;20.90;81.30
36990;DHT22;22898;52.102;5.776;2022-11-03T15:14:11;20.90;80.80
36990;DHT22;22898;52.102;5.776;2022-11-03T15:16:37;20.70;82.20
36990;DHT22;22898;52.102;5.776;2022-11-03T15:19:04;20.50;82.80
36990;DHT22;22898;52.102;5.776;2022-11-03T15:21:31;20.40;83.00
36990;DHT22;22898;52.102;5.776;2022-11-03T15:23:57;20.40;83.40
36990;DHT22;22898;52.102;5.776;2022-11-03T15:26:23;20.30;83.50
36990;DHT22;22898;52.102;5.776;2022-11-03T15:28:48;20.20;84.70
36990;DHT22;22898;52.102;5.776;2022-11-03T15:31:14;20.10;86.10
36990;DHT22;22898;52.102;5.776;2022-11-03T15:33:40;19.90;86.90
36990;DHT22;22898;52.102;5.776;2022-11-03T15:36:06;19.90;86.30
36990;DHT22;22898;52.102;5.776;2022-11-03T15:38:32;19.90;87.50
36990;DHT22;22898;52.102;5.776;2022-11-03T15:40:58;19.60;88.20
36990;DHT22;22898;52.102;5.776;2022-11-03T15:43:47;19.50;89.40
36990;DHT22;22898;52.102;5.776;2022-11-03T15:46:14;19.40;90.20
36990;DHT22;22898;52.102;5.776;2022-11-03T15:48:41;19.60;90.20
36990;DHT22;22898;52.102;5.776;2022-11-03T15:51:07;19.90;90.10
36990;DHT22;22898;52.102;5.776;2022-11-03T15:53:33;20.00;90.20
36990;DHT22;22898;52.102;5.776;2022-11-03T15:55:59;20.00;90.20
36990;DHT22;22898;52.102;5.776;2022-11-03T15:58:25;19.80;90.50
36990;DHT22;22898;52.102;5.776;2022-11-03T16:00:50;19.80;90.70
36990;DHT22;22898;52.102;5.776;2022-11-03T16:03:16;19.70;90.60
36990;DHT22;22898;52.102;5.776;2022-11-03T16:05:42;19.80;90.70
36990;DHT22;22898;52.102;5.776;2022-11-03T16:08:10;19.90;90.80
36990;DHT22;22898;52.102;5.776;2022-11-03T16:10:35;20.20;90.30
36990;DHT22;22898;52.102;5.776;2022-11-03T16:13:01;20.10;90.40
36990;DHT22;22898;52.102;5.776;2022-11-03T16:15:27;20.10;90.30
36990;DHT22;22898;52.102;5.776;2022-11-03T16:17:52;20.10;90.10
36990;DHT22;22898;52.102;5.776;2022-11-03T16:20:18;20.10;90.20
36990;DHT22;22898;52.102;5.776;2022-11-03T16:22:45;19.90;90.60
36990;DHT22;22898;52.102;5.776;2022-11-03T16:25:10;19.60;90.70
36990;DHT22;22898;52.102;5.776;2022-11-03T16:27:36;19.60;90.90